Time;durP1;ratioP1;P1;durP2;ratioP2;P2;SDS_P1;SDS_P2;PMS_P1;PMS_P2;Temp;Humidity;BMP_temperature;BMP_pressure;BME280_temperature;BME280_humidity;BME280_pressure;Samples;Min_cycle;Max_cycle;Signal;HPM_P1;HPM_P2
2024/02/04 00:00:55;;;;;;;7.78;1.88;;;15.70;81.50;;;;;;4133366;28;20398;-52
2024/02/04 00:03:36;;;;;;;5.70;2.43;;;15.70;81.50;;;;;;4138533;28;20406;-53
2024/02/04 00:06:17;;;;;;;9.02;2.58;;;15.70;81.50;;;;;;4135577;28;20106;-53
2024/02/04 00:08:58;;;;;;;9.13;2.50;;;15.70;82.50;;;;;;4135633;28;20084;-53
2024/02/04 00:11:40;;;;;;;5.25;2.42;;;15.70;81.60;;;;;;4147597;28;20624;-53
2024/02/04 00:14:22;;;;;;;7.78;2.05;;;15.60;81.50;;;;;;4138186;28;20065;-53
2024/02/04 00:17:03;;;;;;;;;;;15.60;81.50;;;;;;4155335;28;20110;-54
2024/02/04 00:19:44;;;;;;;9.30;2.40;;;15.60;81.50;;;;;;4154121;28;19948;-52
2024/02/04 00:22:25;;;;;;;8.35;2.03;;;15.60;82.20;;;;;;4138059;28;20402;-50
2024/02/04 00:25:10;;;;;;;7.25;2.40;;;15.60;82.00;;;;;;4154460;28;20052;-51
2024/02/04 00:27:52;;;;;;;5.97;1.73;;;15.60;81.90;;;;;;4130164;28;20057;-49
2024/02/04 00:30:33;;;;;;;6.93;2.10;;;15.60;81.90;;;;;;4134433;28;20103;-53
2024/02/04 00:33:14;;;;;;;9.95;2.00;;;15.60;81.80;;;;;;4158304;28;20072;-49
2024/02/04 00:35:55;;;;;;;6.35;1.83;;;15.60;81.80;;;;;;4153158;28;20543;-51
2024/02/04 00:38:36;;;;;;;9.23;2.00;;;15.60;81.80;;;;;;4153974;28;20052;-54
2024/02/04 00:41:17;;;;;;;6.07;2.28;;;15.60;81.90;;;;;;4147534;28;20099;-52
2024/02/04 00:44:00;;;;;;;8.30;2.20;;;15.50;81.90;;;;;;4151536;28;20092;-51
2024/02/04 00:46:40;;;;;;;7.75;1.95;;;15.50;81.80;;;;;;4153942;28;20180;-49
2024/02/04 00:49:22;;;;;;;8.70;2.53;;;15.50;81.90;;;;;;4153871;28;20425;-52
2024/02/04 00:52:03;;;;;;;6.72;2.15;;;15.50;81.80;;;;;;4154060;28;20099;-54
2024/02/04 00:54:44;;;;;;;5.82;1.80;;;15.60;81.90;;;;;;4154057;28;20175;-50
2024/02/04 00:57:25;;;;;;;5.18;1.52;;;15.50;81.90;;;;;;4176018;28;20180;-49
2024/02/04 01:00:09;;;;;;;7.47;1.73;;;15.50;82.70;;;;;;4152996;28;20071;-53
2024/02/04 01:02:50;;;;;;;3.67;1.60;;;15.50;81.90;;;;;;4154554;28;20299;-48
2024/02/04 01:05:31;;;;;;;4.95;1.30;;;15.50;81.90;;;;;;4141119;28;20052;-53
2024/02/04 01:08:12;;;;;;;9.55;1.70;;;15.50;81.90;;;;;;4157774;28;20060;-54
2024/02/04 01:10:53;;;;;;;4.75;1.65;;;15.50;82.10;;;;;;4154255;28;20056;-54
2024/02/04 01:13:35;;;;;;;5.97;1.48;;;15.50;82.10;;;;;;4156037;28;20108;-50
2024/02/04 01:16:17;;;;;;;6.45;1.42;;;15.50;81.90;;;;;;4144670;28;20106;-51
2024/02/04 01:18:58;;;;;;;5.00;1.50;;;15.50;82.00;;;;;;4156712;28;20045;-50
2024/02/04 01:21:39;;;;;;;2.67;1.38;;;15.50;82.10;;;;;;4157390;28;20513;-51
2024/02/04 01:24:20;;;;;;;7.07;1.98;;;15.50;81.90;;;;;;4154580;28;20056;-49
2024/02/04 01:27:01;;;;;;;6.35;1.52;;;15.40;81.80;;;;;;4157212;28;20068;-52
2024/02/04 01:29:42;;;;;;;6.03;2.42;;;15.40;82.00;;;;;;4152646;28;20406;-52
2024/02/04 01:32:24;;;;;;;6.00;1.80;;;15.40;81.90;;;;;;4155873;28;20053;-49
2024/02/04 01:35:06;;;;;;;7.65;1.80;;;15.40;81.90;;;;;;4155291;28;20096;-52
2024/02/04 01:37:48;;;;;;;6.68;1.60;;;15.40;82.00;;;;;;4156138;28;20164;-54
2024/02/04 01:40:29;;;;;;;4.30;1.20;;;15.40;82.80;;;;;;4155647;28;20048;-52
2024/02/04 01:43:10;;;;;;;3.35;1.50;;;15.40;81.90;;;;;;4156373;28;20055;-52
2024/02/04 01:45:52;;;;;;;8.25;1.80;;;15.40;81.90;;;;;;4176723;28;20057;-53
2024/02/04 01:48:34;;;;;;;11.00;1.63;;;15.40;82.10;;;;;;4155731;28;20053;-54
2024/02/04 01:51:20;;;;;;;8.18;2.45;;;15.40;82.20;;;;;;4133198;28;20069;-44
2024/02/04 01:54:01;;;;;;;4.57;1.65;;;15.30;82.20;;;;;;4134741;28;20052;-44
2024/02/04 01:56:43;;;;;;;;;;;15.30;82.40;;;;;;4153799;28;20076;-42
2024/02/04 01:59:30;;;;;;;7.95;1.70;;;15.30;83.10;;;;;;4155096;28;20023;-51
2024/02/04 02:02:11;;;;;;;4.57;1.40;;;15.30;82.80;;;;;;4155501;28;20161;-52
2024/02/04 02:04:53;;;;;;;3.63;1.75;;;15.30;83.40;;;;;;4155265;28;20489;-50
2024/02/04 02:07:34;;;;;;;6.90;1.40;;;15.30;82.60;;;;;;4154702;28;20053;-53
2024/02/04 02:10:15;;;;;;;6.55;2.03;;;15.30;82.60;;;;;;4155110;28;20057;-50
2024/02/04 02:13:00;;;;;;;7.03;1.40;;;15.30;82.50;;;;;;4139334;28;20095;-50
2024/02/04 02:15:47;;;;;;;6.90;1.70;;;15.30;82.40;;;;;;4138180;28;20053;-50
2024/02/04 02:18:36;;;;;;;10.27;1.40;;;15.30;82.40;;;;;;4131684;28;20061;-49
2024/02/04 02:21:48;;;;;;;6.70;1.33;;;15.20;82.30;;;;;;4152041;28;20056;-52
2024/02/04 02:24:33;;;;;;;;;;;15.20;81.80;;;;;;4137730;28;20052;-52
2024/02/04 02:27:15;;;;;;;6.57;1.67;;;15.30;82.50;;;;;;4149725;28;19976;-50
2024/02/04 02:29:56;;;;;;;10.00;1.83;;;15.20;83.10;;;;;;4139793;28;20517;-50
2024/02/04 02:32:37;;;;;;;5.55;1.63;;;15.20;82.90;;;;;;4129995;28;20080;-49
2024/02/04 02:35:18;;;;;;;6.68;1.50;;;15.20;82.90;;;;;;4153880;28;20410;-49
2024/02/04 02:38:08;;;;;;;6.70;1.63;;;15.20;82.90;;;;;;4154990;28;20064;-53
2024/02/04 02:40:55;;;;;;;8.13;2.60;;;15.20;83.00;;;;;;4154561;28;20044;-49
2024/02/04 02:43:38;;;;;;;4.10;1.40;;;15.20;83.00;;;;;;4155207;28;20516;-53
2024/02/04 02:46:20;;;;;;;6.75;1.55;;;15.10;82.90;;;;;;4139006;28;20052;-52
2024/02/04 02:49:01;;;;;;;;;;;15.20;83.00;;;;;;4137507;28;20052;-52
2024/02/04 02:51:43;;;;;;;12.30;1.88;;;15.20;83.60;;;;;;4151417;28;19964;-53
2024/02/04 02:54:24;;;;;;;7.75;1.67;;;15.20;83.40;;;;;;4164890;28;20052;-52
2024/02/04 02:57:07;;;;;;;6.15;1.80;;;15.10;83.10;;;;;;4152262;28;20124;-51
2024/02/04 02:59:48;;;;;;;6.78;1.50;;;15.10;83.10;;;;;;4149071;28;20461;-51
2024/02/04 03:02:30;;;;;;;6.78;1.90;;;15.10;83.10;;;;;;4136284;28;20053;-59
2024/02/04 03:05:11;;;;;;;8.55;1.60;;;15.10;82.70;;;;;;4149860;28;20159;-58
2024/02/04 03:07:52;;;;;;;9.27;1.63;;;15.10;82.60;;;;;;4153323;28;20057;-58
2024/02/04 03:10:33;;;;;;;6.55;1.88;;;15.10;82.60;;;;;;4137073;28;20056;-51
2024/02/04 03:13:15;;;;;;;7.50;2.00;;;15.10;82.60;;;;;;4138683;28;20538;-60
2024/02/04 03:15:57;;;;;;;8.07;2.05;;;15.10;82.60;;;;;;4159979;28;20103;-60
2024/02/04 03:18:40;;;;;;;9.50;1.83;;;15.10;82.70;;;;;;4142620;28;20060;-61
2024/02/04 03:21:21;;;;;;;6.30;1.38;;;15.10;82.70;;;;;;4152428;28;20049;-61
2024/02/04 03:24:03;;;;;;;10.60;2.28;;;15.00;82.60;;;;;;4153729;28;20203;-60
2024/02/04 03:26:44;;;;;;;7.00;1.40;;;15.00;82.70;;;;;;4153485;28;20509;-59
2024/02/04 03:29:26;;;;;;;5.28;1.77;;;15.10;82.80;;;;;;4141976;28;20494;-60
2024/02/04 03:32:07;;;;;;;8.52;1.40;;;15.00;82.80;;;;;;4177056;28;20134;-61
2024/02/04 03:34:49;;;;;;;7.90;1.33;;;15.00;82.80;;;;;;4153710;28;20053;-59
2024/02/04 03:37:30;;;;;;;7.60;1.73;;;15.00;82.70;;;;;;4165690;28;20119;-59
2024/02/04 03:40:12;;;;;;;9.45;2.08;;;15.00;82.60;;;;;;4147470;28;20135;-59
2024/02/04 03:42:54;;;;;;;6.85;1.60;;;15.00;82.60;;;;;;4150811;28;20132;-57
2024/02/04 03:45:37;;;;;;;7.90;2.10;;;15.00;82.50;;;;;;4153800;28;20175;-59
2024/02/04 03:48:19;;;;;;;7.90;1.77;;;15.00;82.60;;;;;;4153026;28;20083;-59
2024/02/04 03:51:01;;;;;;;4.32;1.60;;;15.00;82.70;;;;;;4151494;28;20635;-57
2024/02/04 03:53:42;;;;;;;6.88;1.77;;;14.90;82.60;;;;;;4153981;28;20048;-57
2024/02/04 03:56:23;;;;;;;10.38;1.65;;;14.90;83.50;;;;;;4153019;28;20060;-57
2024/02/04 03:59:03;;;;;;;5.07;1.80;;;14.90;82.60;;;;;;4152955;28;20402;-58
2024/02/04 04:01:50;;;;;;;7.03;1.33;;;14.90;83.00;;;;;;4164438;28;20056;-57
2024/02/04 04:04:30;;;;;;;6.38;2.00;;;14.90;82.80;;;;;;4151453;28;20098;-59
2024/02/04 04:07:12;;;;;;;5.80;1.58;;;14.90;82.80;;;;;;4141477;28;20048;-57
2024/02/04 04:09:53;;;;;;;4.85;1.45;;;14.90;82.70;;;;;;4147518;28;20617;-59
2024/02/04 04:12:34;;;;;;;6.68;1.80;;;14.90;82.40;;;;;;4152553;28;20056;-57
2024/02/04 04:15:15;;;;;;;8.27;1.97;;;14.90;82.40;;;;;;4154624;28;20190;-57
2024/02/04 04:17:57;;;;;;;;;;;14.90;82.60;;;;;;4175044;28;20653;-57
2024/02/04 04:20:38;;;;;;;10.02;2.38;;;14.90;82.80;;;;;;4153737;28;19931;-57
2024/02/04 04:23:19;;;;;;;6.80;3.47;;;14.90;83.60;;;;;;4125302;28;20161;-57
2024/02/04 04:26:00;;;;;;;10.38;2.05;;;14.90;83.50;;;;;;4153859;28;20067;-57
2024/02/04 04:28:41;;;;;;;10.73;1.98;;;14.90;83.50;;;;;;4153725;28;20057;-58
2024/02/04 04:31:22;;;;;;;7.53;1.95;;;14.90;84.20;;;;;;4153458;28;20191;-57
2024/02/04 04:34:04;;;;;;;8.25;2.10;;;15.00;85.10;;;;;;4151999;28;20064;-59
2024/02/04 04:36:46;;;;;;;7.55;1.65;;;15.00;83.90;;;;;;4153581;28;20195;-57
2024/02/04 04:39:26;;;;;;;10.52;2.63;;;15.10;83.70;;;;;;4153144;28;20214;-58
2024/02/04 04:42:08;;;;;;;10.30;2.10;;;15.20;83.40;;;;;;4150567;28;20489;-58
2024/02/04 04:44:49;;;;;;;5.93;2.08;;;15.30;83.00;;;;;;4153940;28;20410;-58
2024/02/04 04:47:30;;;;;;;12.88;2.50;;;15.30;82.60;;;;;;4175705;28;20132;-58
2024/02/04 04:50:12;;;;;;;13.23;1.80;;;15.40;82.30;;;;;;4154378;28;20060;-58
2024/02/04 04:52:53;;;;;;;6.13;1.58;;;15.40;82.20;;;;;;4153937;28;20292;-58
2024/02/04 04:55:34;;;;;;;9.75;1.83;;;15.40;82.30;;;;;;4152950;28;20053;-52
2024/02/04 04:58:15;;;;;;;7.35;2.00;;;15.40;82.50;;;;;;4153522;28;20110;-49
2024/02/04 05:00:56;;;;;;;7.63;1.90;;;15.50;82.40;;;;;;4154151;28;20150;-53
2024/02/04 05:03:37;;;;;;;7.00;2.03;;;15.50;82.10;;;;;;4152713;28;20053;-58
2024/02/04 05:06:19;;;;;;;7.30;2.07;;;15.60;81.90;;;;;;4152926;28;20060;-58
2024/02/04 05:09:00;;;;;;;9.50;2.13;;;15.60;81.60;;;;;;4154261;28;20294;-58
2024/02/04 05:11:41;;;;;;;9.57;1.98;;;15.60;81.50;;;;;;4152260;28;20056;-58
2024/02/04 05:14:22;;;;;;;5.53;2.08;;;15.60;81.50;;;;;;4152781;28;20574;-57
2024/02/04 05:17:04;;;;;;;12.23;2.17;;;15.60;81.50;;;;;;4153054;28;20056;-57
2024/02/04 05:19:45;;;;;;;9.60;2.15;;;15.60;81.60;;;;;;4152689;28;20056;-57
2024/02/04 05:22:27;;;;;;;8.13;2.83;;;15.60;81.60;;;;;;4152755;28;20126;-57
2024/02/04 05:25:09;;;;;;;6.47;2.20;;;15.70;81.60;;;;;;4153476;28;20398;-57
2024/02/04 05:27:50;;;;;;;6.78;1.80;;;15.60;81.30;;;;;;4153694;28;20601;-57
2024/02/04 05:30:31;;;;;;;11.25;2.15;;;15.60;81.30;;;;;;4152354;28;20060;-57
2024/02/04 05:33:15;;;;;;;11.85;2.30;;;15.60;81.20;;;;;;4153978;28;20059;-58
2024/02/04 05:35:55;;;;;;;10.98;1.83;;;15.60;81.20;;;;;;4154197;28;20075;-57
2024/02/04 05:38:38;;;;;;;11.30;2.03;;;15.60;81.50;;;;;;4153377;28;20080;-58
2024/02/04 05:41:19;;;;;;;15.65;2.58;;;15.60;81.30;;;;;;4152735;28;20052;-60
2024/02/04 05:44:00;;;;;;;9.13;1.73;;;15.60;81.10;;;;;;4153009;28;20516;-59
2024/02/04 05:46:41;;;;;;;13.68;2.55;;;15.60;81.20;;;;;;4153178;28;20398;-59
2024/02/04 05:49:22;;;;;;;8.32;2.10;;;15.70;81.20;;;;;;4151898;28;20520;-58
2024/02/04 05:52:03;;;;;;;9.35;1.85;;;15.70;81.00;;;;;;4152125;28;20053;-59
2024/02/04 05:54:45;;;;;;;7.68;1.63;;;15.80;80.70;;;;;;4146263;28;20052;-59
2024/02/04 05:57:26;;;;;;;10.95;2.35;;;15.80;80.70;;;;;;4156194;28;20102;-58
2024/02/04 06:00:10;;;;;;;12.45;2.40;;;15.80;80.50;;;;;;4156076;28;20048;-59
2024/02/04 06:02:51;;;;;;;12.27;2.38;;;15.80;80.70;;;;;;4156351;28;20159;-55
2024/02/04 06:05:32;;;;;;;6.68;2.25;;;15.80;80.70;;;;;;4155770;28;20060;-50
2024/02/04 06:08:14;;;;;;;10.30;2.33;;;15.80;80.70;;;;;;4137663;28;20092;-53
2024/02/04 06:10:56;;;;;;;8.80;1.85;;;15.80;80.40;;;;;;4150561;28;20498;-53
2024/02/04 06:13:37;;;;;;;10.63;1.90;;;15.80;81.10;;;;;;4155024;28;20048;-52
2024/02/04 06:16:18;;;;;;;11.50;2.60;;;15.80;80.30;;;;;;4154065;28;20053;-51
2024/02/04 06:19:00;;;;;;;10.73;1.88;;;15.70;80.40;;;;;;4154537;28;20126;-52
2024/02/04 06:21:40;;;;;;;10.73;1.63;;;15.70;80.60;;;;;;4139282;28;20513;-54
2024/02/04 06:24:22;;;;;;;10.68;2.03;;;15.70;80.80;;;;;;4154978;28;20505;-53
2024/02/04 06:27:04;;;;;;;9.32;2.08;;;15.80;80.70;;;;;;4154035;28;20057;-52
2024/02/04 06:29:46;;;;;;;13.10;2.85;;;15.80;80.50;;;;;;4155967;28;20060;-52
2024/02/04 06:32:26;;;;;;;11.82;2.20;;;15.80;80.30;;;;;;4155283;28;20102;-59
2024/02/04 06:35:08;;;;;;;11.93;2.35;;;15.80;80.10;;;;;;4154690;28;20134;-59
2024/02/04 06:37:49;;;;;;;;;;;15.80;80.30;;;;;;4156758;28;20071;-59
2024/02/04 06:40:30;;;;;;;10.40;3.08;;;15.90;80.30;;;;;;4154814;28;20353;-59
2024/02/04 06:43:12;;;;;;;9.35;1.75;;;15.90;80.40;;;;;;4139525;28;20052;-61
2024/02/04 06:45:53;;;;;;;9.57;2.20;;;15.90;80.20;;;;;;4139323;28;20052;-60
2024/02/04 06:48:34;;;;;;;10.85;2.35;;;15.90;80.10;;;;;;4154056;28;20049;-58
2024/02/04 06:51:15;;;;;;;10.52;1.85;;;15.90;80.00;;;;;;4155033;28;20060;-59
2024/02/04 06:53:56;;;;;;;10.65;2.80;;;15.90;80.00;;;;;;4155031;28;20056;-58
2024/02/04 06:56:37;;;;;;;7.80;1.85;;;15.90;79.90;;;;;;4154216;28;20051;-58
2024/02/04 06:59:20;;;;;;;11.43;2.05;;;15.90;79.60;;;;;;4154920;28;20057;-58
2024/02/04 07:02:01;;;;;;;9.75;2.00;;;15.90;80.00;;;;;;4153832;28;20180;-59
2024/02/04 07:04:42;;;;;;;12.20;3.25;;;16.00;80.00;;;;;;4151224;28;20561;-59
2024/02/04 07:07:23;;;;;;;7.47;1.95;;;16.00;79.80;;;;;;4150280;28;20076;-58
2024/02/04 07:10:05;;;;;;;10.02;2.95;;;16.00;79.60;;;;;;4153723;28;20052;-59
2024/02/04 07:12:47;;;;;;;5.82;1.50;;;16.00;79.60;;;;;;4153919;28;20044;-59
2024/02/04 07:15:30;;;;;;;6.50;1.85;;;15.90;79.50;;;;;;4154586;28;20636;-59
2024/02/04 07:18:11;;;;;;;9.18;1.88;;;15.90;79.60;;;;;;4154827;28;20052;-51
2024/02/04 07:20:52;;;;;;;9.70;2.22;;;15.90;79.70;;;;;;4138435;28;20057;-50
2024/02/04 07:23:33;;;;;;;5.93;1.85;;;15.90;79.60;;;;;;4154157;28;20059;-51
2024/02/04 07:26:14;;;;;;;11.60;1.73;;;15.90;79.60;;;;;;4154320;28;20167;-51
2024/02/04 07:28:55;;;;;;;10.68;2.20;;;15.90;79.70;;;;;;4137457;28;20188;-51
2024/02/04 07:31:38;;;;;;;13.32;2.25;;;15.90;80.40;;;;;;4138608;28;20077;-50
2024/02/04 07:34:19;;;;;;;11.35;2.13;;;16.00;79.40;;;;;;4138485;28;20053;-50
2024/02/04 07:36:59;;;;;;;7.25;1.98;;;16.10;79.10;;;;;;4150145;28;20060;-52
2024/02/04 07:39:41;;;;;;;6.10;1.83;;;16.00;78.90;;;;;;4154140;28;20069;-53
2024/02/04 07:42:22;;;;;;;6.63;1.83;;;16.10;77.70;;;;;;4153175;28;20056;-55
2024/02/04 07:45:08;;;;;;;6.60;1.85;;;16.20;75.90;;;;;;4155264;28;20052;-54
2024/02/04 07:47:51;;;;;;;16.70;2.88;;;16.20;75.10;;;;;;4154466;28;20068;-55
2024/02/04 07:50:32;;;;;;;11.43;1.60;;;16.30;74.70;;;;;;4154986;28;20121;-58
2024/02/04 07:53:13;;;;;;;9.88;2.15;;;16.30;74.50;;;;;;4144062;28;20057;-59
2024/02/04 07:55:54;;;;;;;8.32;1.70;;;16.30;73.80;;;;;;4154798;28;20102;-60
2024/02/04 07:58:35;;;;;;;13.00;2.00;;;16.30;73.50;;;;;;4154863;28;20084;-58
2024/02/04 08:01:18;;;;;;;12.95;1.92;;;16.30;73.20;;;;;;4153181;28;20060;-58
2024/02/04 08:04:02;;;;;;;7.00;1.92;;;16.30;73.60;;;;;;4152806;28;20502;-58
2024/02/04 08:06:43;;;;;;;6.70;1.30;;;16.30;72.20;;;;;;4153673;28;20118;-50
2024/02/04 08:09:24;;;;;;;10.70;1.90;;;16.30;71.90;;;;;;4152962;28;20060;-49
2024/02/04 08:12:06;;;;;;;11.00;3.28;;;16.20;71.70;;;;;;4137602;28;20395;-49
2024/02/04 08:14:46;;;;;;;9.10;1.98;;;16.20;71.20;;;;;;4148628;28;20067;-48
2024/02/04 08:17:28;;;;;;;7.63;2.15;;;16.20;70.90;;;;;;4153751;28;20060;-46
2024/02/04 08:20:12;;;;;;;12.85;2.30;;;16.20;70.50;;;;;;4153417;28;20121;-48
2024/02/04 08:22:53;;;;;;;10.55;1.98;;;16.20;70.20;;;;;;4151672;28;20056;-48
2024/02/04 08:25:34;;;;;;;7.32;1.63;;;16.20;69.90;;;;;;4151481;28;20126;-59
2024/02/04 08:28:16;;;;;;;9.35;1.85;;;16.10;69.70;;;;;;4151879;28;20064;-59
2024/02/04 08:30:56;;;;;;;8.50;2.30;;;16.10;69.60;;;;;;4153864;28;20513;-58
2024/02/04 08:33:37;;;;;;;11.05;2.55;;;16.00;69.70;;;;;;4136884;28;20304;-58
2024/02/04 08:36:20;;;;;;;5.60;1.67;;;16.00;69.60;;;;;;4137711;28;20414;-59
2024/02/04 08:39:01;;;;;;;9.25;2.10;;;16.10;69.30;;;;;;4155613;28;20064;-58
2024/02/04 08:41:42;;;;;;;7.18;1.67;;;16.10;69.00;;;;;;4147573;28;20056;-59
2024/02/04 08:44:24;;;;;;;;;;;16.00;68.80;;;;;;4153333;28;20055;-59
2024/02/04 08:47:13;;;;;;;7.45;1.80;;;16.10;68.90;;;;;;4153872;28;19932;-60
2024/02/04 08:49:54;;;;;;;5.38;1.90;;;16.00;68.70;;;;;;4153131;28;20080;-59
2024/02/04 08:52:37;;;;;;;13.48;2.05;;;16.00;68.80;;;;;;4151434;28;20575;-58
2024/02/04 08:55:18;;;;;;;10.45;2.70;;;15.90;68.90;;;;;;4153244;28;20192;-59
2024/02/04 08:57:59;;;;;;;6.80;1.83;;;15.90;68.90;;;;;;4149671;28;20072;-59
2024/02/04 09:00:40;;;;;;;13.13;2.70;;;15.90;69.00;;;;;;4153866;28;20059;-59
2024/02/04 09:03:22;;;;;;;6.82;1.85;;;15.90;68.90;;;;;;4151326;28;20052;-59
2024/02/04 09:06:03;;;;;;;9.98;2.03;;;15.90;68.80;;;;;;4144529;28;20116;-61
2024/02/04 09:08:46;;;;;;;;;;;15.90;68.90;;;;;;4152694;28;20045;-60
2024/02/04 09:11:27;;;;;;;9.30;2.10;;;15.90;68.70;;;;;;4153555;28;19928;-60
2024/02/04 09:14:08;;;;;;;9.90;2.08;;;15.90;68.70;;;;;;4153939;28;20135;-61
2024/02/04 09:16:49;;;;;;;8.48;2.50;;;15.90;68.70;;;;;;4152452;28;20053;-61
2024/02/04 09:19:30;;;;;;;9.55;1.80;;;15.80;68.70;;;;;;4137779;28;20872;-61
2024/02/04 09:22:12;;;;;;;8.52;2.30;;;15.80;69.00;;;;;;4153033;28;20520;-61
2024/02/04 09:24:55;;;;;;;7.65;1.92;;;15.80;69.00;;;;;;4152022;28;20056;-60
2024/02/04 09:27:36;;;;;;;9.13;1.90;;;15.80;69.00;;;;;;4155734;28;20135;-60
2024/02/04 09:30:17;;;;;;;;;;;15.80;69.20;;;;;;4150483;28;20497;-59
2024/02/04 09:32:58;;;;;;;6.75;1.58;;;15.70;69.30;;;;;;4145805;28;20404;-59
2024/02/04 09:35:39;;;;;;;7.38;2.47;;;15.70;69.40;;;;;;4149429;28;20053;-59
2024/02/04 09:38:21;;;;;;;9.43;2.15;;;15.70;69.40;;;;;;4163246;28;20102;-59
2024/02/04 09:41:05;;;;;;;12.60;2.25;;;15.60;69.30;;;;;;4152718;28;20053;-59
2024/02/04 09:43:46;;;;;;;8.93;2.28;;;15.60;69.30;;;;;;4153030;28;20048;-58
2024/02/04 09:46:28;;;;;;;5.43;1.70;;;15.50;69.30;;;;;;4154390;28;20052;-58
2024/02/04 09:49:10;;;;;;;14.57;2.10;;;15.50;69.50;;;;;;4151405;28;20112;-50
2024/02/04 09:51:51;;;;;;;9.02;1.90;;;15.50;69.80;;;;;;4150599;28;20133;-58
2024/02/04 09:54:34;;;;;;;15.95;2.70;;;15.80;69.40;;;;;;4155592;28;20056;-59
2024/02/04 09:57:17;;;;;;;6.32;1.92;;;16.30;67.90;;;;;;4154960;28;20131;-57
2024/02/04 09:59:58;;;;;;;5.25;1.60;;;16.90;65.60;;;;;;4143672;28;20533;-57
2024/02/04 10:02:40;;;;;;;2.05;1.25;;;17.50;63.30;;;;;;4147710;28;20056;-59
2024/02/04 10:05:21;;;;;;;4.28;2.08;;;18.00;61.20;;;;;;4139624;28;20122;-48
2024/02/04 10:08:02;;;;;;;6.95;1.95;;;18.50;59.40;;;;;;4153133;28;20115;-48
2024/02/04 10:10:43;;;;;;;8.02;2.25;;;18.90;58.40;;;;;;4150030;28;20057;-49
2024/02/04 10:13:26;;;;;;;4.38;1.48;;;19.20;57.50;;;;;;4157460;28;20053;-50
2024/02/04 10:16:07;;;;;;;8.10;1.80;;;19.30;56.80;;;;;;4172457;28;20183;-50
2024/02/04 10:18:49;;;;;;;;;;;19.50;56.60;;;;;;4144513;28;20417;-48
2024/02/04 10:21:30;;;;;;;6.60;1.90;;;19.50;56.40;;;;;;4147211;28;20010;-49
2024/02/04 10:24:11;;;;;;;7.82;1.75;;;19.40;56.30;;;;;;4155068;28;20060;-48
2024/02/04 10:26:53;;;;;;;6.70;1.85;;;19.30;56.70;;;;;;4171561;28;20056;-48
2024/02/04 10:29:36;;;;;;;8.23;1.70;;;19.20;56.80;;;;;;4150565;28;20699;-50
2024/02/04 10:32:22;;;;;;;6.40;1.80;;;19.00;57.00;;;;;;4154180;28;20060;-47
2024/02/04 10:35:05;;;;;;;7.68;1.77;;;18.90;57.20;;;;;;4138602;28;20107;-48
2024/02/04 10:37:46;;;;;;;6.38;1.83;;;18.90;57.50;;;;;;4141566;28;20106;-48
2024/02/04 10:40:27;;;;;;;;;;;18.90;57.50;;;;;;4141262;28;20056;-48
2024/02/04 10:43:09;;;;;;;7.82;1.40;;;18.90;57.30;;;;;;4150875;28;19932;-47
2024/02/04 10:45:56;;;;;;;7.75;1.52;;;19.00;57.30;;;;;;4142982;28;20060;-48
2024/02/04 10:48:42;;;;;;;6.57;1.42;;;19.10;57.30;;;;;;4146829;28;20183;-58
2024/02/04 10:51:26;;;;;;;4.85;1.83;;;19.10;57.00;;;;;;4138940;28;20080;-58
2024/02/04 10:54:08;;;;;;;5.10;1.48;;;19.10;56.80;;;;;;4122017;28;20181;-58
2024/02/04 10:56:56;;;;;;;6.15;1.52;;;19.10;57.60;;;;;;4139505;28;20099;-48
2024/02/04 10:59:38;;;;;;;5.43;1.40;;;19.00;57.10;;;;;;4138523;28;20414;-57
2024/02/04 11:02:20;;;;;;;;;;;18.80;57.10;;;;;;4139794;28;20052;-58
2024/02/04 11:05:03;;;;;;;4.93;1.35;;;18.70;57.70;;;;;;4135572;28;19928;-58
2024/02/04 11:07:45;;;;;;;4.40;1.70;;;18.50;58.30;;;;;;4153953;28;20103;-58
2024/02/04 11:10:30;;;;;;;3.83;1.30;;;18.40;58.70;;;;;;4154964;28;20464;-60
2024/02/04 11:13:12;;;;;;;5.93;1.50;;;18.20;58.90;;;;;;4155076;28;20199;-48
2024/02/04 11:15:55;;;;;;;8.40;1.90;;;18.20;59.00;;;;;;4154472;28;20064;-48
2024/02/04 11:18:56;;;;;;;4.95;1.20;;;18.20;59.10;;;;;;4153454;28;20481;-76
2024/02/04 11:22:02;;;;;;;7.22;2.03;;;18.30;58.60;;;;;;4121789;28;20154;-58
2024/02/04 11:25:13;;;;;;;8.90;1.85;;;18.40;58.00;;;;;;4136425;28;20120;-58
2024/02/04 11:27:54;;;;;;;5.03;1.67;;;18.50;57.70;;;;;;4147260;28;20049;-58
2024/02/04 11:30:35;;;;;;;5.88;1.50;;;18.60;57.60;;;;;;4135299;28;20104;-53
2024/02/04 11:33:20;;;;;;;4.38;1.65;;;18.70;57.30;;;;;;4139023;28;20399;-48
2024/02/04 11:36:04;;;;;;;9.00;1.67;;;18.80;56.70;;;;;;4158265;28;20508;-49
2024/02/04 11:38:49;;;;;;;3.35;1.58;;;18.90;57.10;;;;;;4154440;28;20103;-49
2024/02/04 11:41:30;;;;;;;8.60;2.75;;;19.00;57.10;;;;;;4137869;28;20076;-50
2024/02/04 11:44:11;;;;;;;7.78;2.20;;;19.00;57.00;;;;;;4129281;28;20850;-50
2024/02/04 11:46:55;;;;;;;6.40;1.77;;;19.10;57.00;;;;;;4136654;28;20115;-60
2024/02/04 11:49:36;;;;;;;9.50;2.63;;;19.10;56.70;;;;;;4135954;28;20069;-59
2024/02/04 11:52:21;;;;;;;3.80;1.13;;;19.10;56.50;;;;;;4141652;28;20060;-59
2024/02/04 11:55:03;;;;;;;8.80;2.33;;;19.10;56.70;;;;;;4142526;28;20513;-59
2024/02/04 11:57:45;;;;;;;5.28;1.30;;;19.00;56.90;;;;;;4119976;28;20104;-59
2024/02/04 12:00:27;;;;;;;5.13;2.00;;;18.90;57.10;;;;;;4136794;28;20073;-61
2024/02/04 12:03:09;;;;;;;10.45;2.40;;;18.80;57.70;;;;;;4151408;28;20640;-58
2024/02/04 12:05:51;;;;;;;6.18;1.92;;;18.80;58.40;;;;;;4130336;28;20091;-54
2024/02/04 12:08:34;;;;;;;7.25;2.67;;;18.90;59.20;;;;;;4134891;28;20064;-52
2024/02/04 12:11:16;;;;;;;9.85;2.70;;;19.00;59.70;;;;;;4149597;28;20063;-58
2024/02/04 12:13:57;;;;;;;6.90;2.00;;;19.20;59.60;;;;;;4147697;28;20056;-53
2024/02/04 12:16:38;;;;;;;;;;;19.30;59.70;;;;;;4134618;28;20137;-60
2024/02/04 12:19:19;;;;;;;9.02;1.90;;;19.40;59.60;;;;;;4145370;28;19932;-61
2024/02/04 12:22:01;;;;;;;5.43;2.13;;;19.50;59.30;;;;;;4142227;28;20666;-62
2024/02/04 12:24:43;;;;;;;6.57;1.83;;;19.70;59.20;;;;;;4136609;28;20057;-60
2024/02/04 12:27:24;;;;;;;3.90;1.80;;;19.80;58.70;;;;;;4139614;28;20074;-60
2024/02/04 12:30:08;;;;;;;4.10;1.20;;;19.90;58.60;;;;;;4137643;28;20136;-60
2024/02/04 12:32:57;;;;;;;4.65;1.40;;;19.90;58.20;;;;;;4141143;28;20057;-60
2024/02/04 12:35:38;;;;;;;6.97;1.77;;;20.00;58.10;;;;;;4145397;28;20052;-61
2024/02/04 12:38:19;;;;;;;2.22;1.35;;;20.10;57.70;;;;;;4138313;28;20107;-60
2024/02/04 12:41:04;;;;;;;4.38;1.55;;;20.20;57.50;;;;;;4133532;28;20092;-61
2024/02/04 12:43:51;;;;;;;11.73;1.80;;;20.30;57.30;;;;;;4143973;28;20069;-60
2024/02/04 12:46:33;;;;;;;5.05;1.80;;;20.30;57.30;;;;;;4148558;28;20127;-61
2024/02/04 12:49:21;;;;;;;4.10;1.73;;;20.30;57.60;;;;;;4149070;28;20086;-62
2024/02/04 12:52:06;;;;;;;3.78;1.92;;;20.20;57.50;;;;;;4148119;28;20044;-59
2024/02/04 12:54:47;;;;;;;4.82;1.70;;;20.10;57.60;;;;;;4140211;28;20135;-58
2024/02/04 12:57:29;;;;;;;;;;;20.00;58.70;;;;;;4151332;28;20052;-57
2024/02/04 13:00:12;;;;;;;6.50;1.20;;;19.90;58.30;;;;;;4157945;28;19928;-58
2024/02/04 13:02:53;;;;;;;5.57;1.20;;;20.00;58.40;;;;;;4150407;28;20139;-59
2024/02/04 13:05:34;;;;;;;2.60;1.15;;;20.00;58.00;;;;;;4147437;28;20061;-59
2024/02/04 13:08:19;;;;;;;2.78;1.25;;;20.10;57.80;;;;;;4132961;28;20062;-57
2024/02/04 13:11:00;;;;;;;3.25;1.15;;;20.20;57.50;;;;;;4143253;28;20525;-58
2024/02/04 13:13:43;;;;;;;3.22;1.02;;;20.30;57.20;;;;;;4153162;28;20417;-58
2024/02/04 13:16:25;;;;;;;6.05;1.70;;;20.30;57.00;;;;;;4156170;28;20542;-62
2024/02/04 13:19:07;;;;;;;2.60;0.93;;;20.40;56.70;;;;;;4139335;28;20051;-61
2024/02/04 13:21:48;;;;;;;3.40;0.57;;;20.40;56.60;;;;;;4156398;28;20191;-53
2024/02/04 13:24:29;;;;;;;3.88;1.13;;;20.40;56.70;;;;;;4156169;28;20067;-51
2024/02/04 13:27:10;;;;;;;4.50;1.30;;;20.30;56.50;;;;;;4155025;28;20057;-53
2024/02/04 13:29:53;;;;;;;2.33;1.10;;;20.30;56.10;;;;;;4155273;28;20044;-61
2024/02/04 13:32:34;;;;;;;2.45;1.20;;;20.20;56.10;;;;;;4155249;28;20135;-51
2024/02/04 13:35:15;;;;;;;2.95;1.08;;;20.10;56.00;;;;;;4156540;28;20398;-52
2024/02/04 13:37:59;;;;;;;4.05;0.93;;;20.00;56.20;;;;;;4178360;28;20048;-53
2024/02/04 13:40:40;;;;;;;4.50;1.27;;;19.90;56.30;;;;;;4140456;28;20049;-51
2024/02/04 13:43:21;;;;;;;3.45;1.00;;;19.80;56.40;;;;;;4156359;28;20056;-50
2024/02/04 13:46:06;;;;;;;2.17;1.02;;;19.70;56.70;;;;;;4156426;28;20184;-54
2024/02/04 13:48:47;;;;;;;4.20;1.17;;;19.70;56.60;;;;;;4155948;28;20107;-51
2024/02/04 13:51:29;;;;;;;3.22;1.15;;;19.60;56.70;;;;;;4156216;28;20112;-51
2024/02/04 13:54:16;;;;;;;1.42;0.90;;;19.50;56.90;;;;;;4156348;28;20183;-52
2024/02/04 13:56:58;;;;;;;2.45;0.80;;;19.40;56.80;;;;;;4155798;28;20048;-56
2024/02/04 13:59:39;;;;;;;5.05;1.35;;;19.30;57.10;;;;;;4155437;28;20509;-50
2024/02/04 14:02:23;;;;;;;2.92;0.75;;;19.20;57.30;;;;;;4156011;28;20179;-50
2024/02/04 14:05:04;;;;;;;4.50;1.10;;;19.10;57.50;;;;;;4155270;28;20056;-54